Time;durP1;ratioP1;P1;durP2;ratioP2;P2;SDS_P1;SDS_P2;PMS_P1;PMS_P2;Temp;Humidity;BMP_temperature;BMP_pressure;BME280_temperature;BME280_humidity;BME280_pressure;Samples;Min_cycle;Max_cycle;Signal;HPM_P1;HPM_P2
2022/10/04 00:01:43;;;;;;;12.53;7.07;;;;;;;8.70;100.00;99580.75;4157106;28;20235;-68
2022/10/04 00:04:13;;;;;;;18.00;7.10;;;;;;;8.75;100.00;99583.78;4154484;28;21063;-68
2022/10/04 00:06:48;;;;;;;14.40;6.90;;;;;;;8.80;100.00;99579.69;4171039;28;22627;-67
2022/10/04 00:09:19;;;;;;;14.27;6.90;;;;;;;8.82;100.00;99580.34;4175278;28;20255;-71
2022/10/04 00:11:46;;;;;;;11.27;6.37;;;;;;;8.84;100.00;99581.03;4170601;28;23897;-68
2022/10/04 00:14:42;;;;;;;17.70;7.70;;;;;;;8.79;100.00;99570.06;4174290;28;20246;-69
2022/10/04 00:17:11;;;;;;;16.40;6.30;;;;;;;8.83;100.00;99566.09;4150178;28;22212;-68
2022/10/04 00:19:44;;;;;;;15.57;6.63;;;;;;;8.87;100.00;99570.13;4163636;28;20321;-68
2022/10/04 00:22:21;;;;;;;15.00;6.00;;;;;;;8.86;100.00;99576.41;4163117;28;20701;-68
2022/10/04 00:25:16;;;;;;;21.10;6.10;;;;;;;8.89;100.00;99567.31;4154770;28;20245;-70
2022/10/04 00:28:23;;;;;;;12.03;5.73;;;;;;;8.91;100.00;99567.97;4169309;28;21225;-70
2022/10/04 00:31:14;;;;;;;21.37;6.67;;;;;;;8.95;100.00;99565.84;4157783;28;21730;-68
2022/10/04 00:33:45;;;;;;;18.23;6.57;;;;;;;8.95;100.00;99556.06;4153760;28;21565;-68
2022/10/04 00:36:29;;;;;;;18.30;6.37;;;;;;;8.94;100.00;99553.56;4174976;28;20250;-71
2022/10/04 00:39:05;;;;;;;14.93;6.33;;;;;;;8.96;100.00;99559.56;4169131;28;20627;-68
2022/10/04 00:41:47;;;;;;;16.37;5.53;;;;;;;9.00;100.00;99558.25;4169451;28;20238;-68
2022/10/04 00:44:59;;;;;;;17.60;6.03;;;;;;;8.99;100.00;99559.22;4169781;28;20306;-70
2022/10/04 00:47:30;;;;;;;17.70;6.00;;;;;;;9.01;100.00;99563.41;4137615;28;21852;-67
2022/10/04 00:50:11;;;;;;;12.57;5.70;;;;;;;8.99;100.00;99561.88;4160167;28;20234;-67
2022/10/04 00:52:43;;;;;;;15.70;5.67;;;;;;;9.02;100.00;99558.94;4155762;28;20230;-68
2022/10/04 00:55:25;;;;;;;14.03;5.63;;;;;;;8.96;100.00;99562.22;4178404;28;22771;-70
2022/10/04 00:57:58;;;;;;;14.20;5.87;;;;;;;9.01;100.00;99562.56;4173883;28;20289;-68
2022/10/04 01:00:25;;;;;;;14.40;5.50;;;;;;;8.94;100.00;99562.34;4152145;28;21732;-69
2022/10/04 01:02:59;;;;;;;12.20;4.90;;;;;;;9.00;100.00;99563.56;4168625;28;20246;-68
2022/10/04 01:05:36;;;;;;;14.00;4.50;;;;;;;9.04;100.00;99549.00;4167655;28;20371;-67
2022/10/04 01:08:12;;;;;;;13.30;4.87;;;;;;;9.10;100.00;99556.31;4170260;28;20444;-66
2022/10/04 01:11:18;;;;;;;12.57;4.23;;;;;;;9.13;100.00;99564.00;4165270;28;20245;-67
2022/10/04 01:13:49;;;;;;;14.13;4.67;;;;;;;9.13;100.00;99561.34;4162293;28;20268;-67
2022/10/04 01:16:23;;;;;;;11.37;4.53;;;;;;;9.02;100.00;99551.81;4178890;28;21595;-67
2022/10/04 01:18:50;;;;;;;11.60;4.10;;;;;;;8.98;100.00;99546.97;4159271;28;22754;-68
2022/10/04 01:21:19;;;;;;;13.47;4.03;;;;;;;8.96;100.00;99538.31;4160200;28;20256;-67
2022/10/04 01:23:56;;;;;;;16.27;4.27;;;;;;;8.92;100.00;99540.47;4174763;28;20233;-70
2022/10/04 01:26:25;;;;;;;11.30;3.97;;;;;;;8.83;100.00;99539.59;4169544;28;20356;-68
2022/10/04 01:28:52;;;;;;;12.00;4.20;;;;;;;8.81;100.00;99538.91;4169430;28;21852;-67
2022/10/04 01:31:19;;;;;;;11.93;4.47;;;;;;;8.66;100.00;99543.09;4154513;28;20241;-68
2022/10/04 01:33:46;;;;;;;17.60;4.93;;;;;;;8.60;100.00;99551.69;4170027;28;20538;-69
2022/10/04 01:36:13;;;;;;;11.67;4.30;;;;;;;8.61;100.00;99551.50;4157096;28;20246;-68
2022/10/04 01:38:40;;;;;;;11.63;4.13;;;;;;;8.59;100.00;99539.41;4160418;28;20238;-68
2022/10/04 01:41:07;;;;;;;10.00;4.17;;;;;;;8.59;100.00;99542.91;4152917;28;20555;-68
2022/10/04 01:43:37;;;;;;;12.40;4.23;;;;;;;8.61;100.00;99548.84;4151453;28;21304;-70
2022/10/04 01:46:12;;;;;;;11.67;4.10;;;;;;;8.55;100.00;99553.97;4175523;28;20548;-71
2022/10/04 01:48:42;;;;;;;12.33;4.20;;;;;;;8.55;100.00;99557.44;4144921;28;20310;-69
2022/10/04 01:51:45;;;;;;;13.17;4.43;;;;;;;8.53;100.00;99556.75;4177502;28;20239;-69
2022/10/04 01:54:18;;;;;;;12.43;4.10;;;;;;;8.53;100.00;99564.72;4163139;28;21527;-69
2022/10/04 01:56:52;;;;;;;7.83;3.73;;;;;;;8.53;100.00;99563.91;4167929;28;20391;-69
2022/10/04 01:59:33;;;;;;;13.03;4.73;;;;;;;8.49;100.00;99557.22;4171551;28;22416;-68
2022/10/04 02:02:03;;;;;;;11.53;5.13;;;;;;;8.52;100.00;99570.16;4174045;28;22336;-70
2022/10/04 02:04:33;;;;;;;14.03;4.53;;;;;;;8.38;100.00;99564.41;4157962;28;20238;-70
2022/10/04 02:07:01;;;;;;;14.93;5.60;;;;;;;8.31;100.00;99565.16;4151174;28;20234;-70
2022/10/04 02:09:33;;;;;;;13.97;4.73;;;;;;;8.33;100.00;99563.19;4169097;28;20239;-70
2022/10/04 02:12:01;;;;;;;14.93;4.50;;;;;;;8.27;100.00;99561.97;4157343;28;20237;-68
2022/10/04 02:14:34;;;;;;;11.97;4.07;;;;;;;8.29;100.00;99567.09;4159986;28;20577;-70
2022/10/04 02:17:04;;;;;;;13.83;4.00;;;;;;;8.31;100.00;99562.50;4163183;28;20370;-69
2022/10/04 02:19:34;;;;;;;10.87;3.47;;;;;;;8.31;100.00;99565.16;4171334;28;20347;-68
2022/10/04 02:22:04;;;;;;;13.10;4.10;;;;;;;8.29;100.00;99562.66;4172416;28;20278;-69
2022/10/04 02:24:37;;;;;;;11.67;3.73;;;;;;;8.32;100.00;99562.34;4165750;28;20322;-68
2022/10/04 02:27:05;;;;;;;9.20;3.17;;;;;;;8.37;100.00;99560.06;4159870;28;20297;-68
2022/10/04 02:29:31;;;;;;;13.53;3.03;;;;;;;8.25;100.00;99562.13;4171689;28;21229;-67
2022/10/04 02:34:45;;;;;;;6.33;3.30;;;;;;;8.31;100.00;99559.84;4187978;28;20299;-71
2022/10/04 02:37:13;;;;;;;10.03;3.80;;;;;;;8.37;100.00;99568.03;4165285;28;20256;-71
2022/10/04 02:39:43;;;;;;;12.50;3.70;;;;;;;8.39;100.00;99562.59;4160175;28;20238;-70
2022/10/04 02:42:34;;;;;;;10.07;3.50;;;;;;;8.33;100.00;99561.34;4172669;28;21307;-70
2022/10/04 02:45:09;;;;;;;11.20;3.60;;;;;;;8.38;100.00;99561.75;4174667;28;21288;-70
2022/10/04 02:47:57;;;;;;;8.27;3.10;;;;;;;8.37;100.00;99568.03;4166500;28;21768;-74
2022/10/04 02:50:35;;;;;;;12.70;3.83;;;;;;;8.34;100.00;99568.34;4178466;28;20455;-74
2022/10/04 02:53:29;;;;;;;10.87;3.40;;;;;;;8.37;100.00;99570.69;4179729;28;20527;-72
2022/10/04 02:55:56;;;;;;;11.67;3.20;;;;;;;8.38;100.00;99572.34;4176625;28;22797;-70
2022/10/04 02:58:24;;;;;;;7.37;2.90;;;;;;;8.38;100.00;99567.06;4164378;28;21076;-71
2022/10/04 03:01:00;;;;;;;8.60;2.80;;;;;;;8.30;100.00;99569.63;4163891;28;20308;-71
2022/10/04 03:03:33;;;;;;;7.20;2.60;;;;;;;8.33;100.00;99571.13;4167969;28;22895;-71
2022/10/04 03:06:00;;;;;;;8.93;2.67;;;;;;;8.32;100.00;99569.47;4146850;28;20332;-71
2022/10/04 03:08:28;;;;;;;8.13;2.93;;;;;;;8.29;100.00;99567.97;4231320;28;20255;-70
2022/10/04 03:10:58;;;;;;;9.10;3.17;;;;;;;8.25;100.00;99563.94;4175174;28;20241;-70
2022/10/04 03:13:24;;;;;;;6.60;2.67;;;;;;;8.29;100.00;99567.09;4181281;28;20579;-70
2022/10/04 03:15:51;;;;;;;8.97;2.80;;;;;;;8.27;100.00;99569.94;4149377;28;20237;-70
2022/10/04 03:18:18;;;;;;;9.20;3.50;;;;;;;8.29;100.00;99573.28;4173117;28;20234;-70
2022/10/04 03:20:45;;;;;;;8.97;3.27;;;;;;;8.30;100.00;99577.56;4173705;28;20419;-70
2022/10/04 03:23:14;;;;;;;8.37;3.70;;;;;;;8.28;100.00;99571.59;4174410;28;20240;-70
2022/10/04 03:25:56;;;;;;;10.47;3.93;;;;;;;8.31;100.00;99578.41;4161521;28;20250;-69
2022/10/04 03:28:22;;;;;;;14.40;4.80;;;;;;;8.41;100.00;99572.06;4168290;28;20797;-70
2022/10/04 03:30:49;;;;;;;11.23;4.10;;;;;;;8.43;100.00;99569.28;4165827;28;21109;-71
2022/10/04 03:33:18;;;;;;;10.03;4.93;;;;;;;8.52;100.00;99584.28;4165740;28;20399;-72
2022/10/04 03:35:46;;;;;;;11.80;4.40;;;;;;;8.50;100.00;99585.38;4173158;28;20236;-68
2022/10/04 03:38:13;;;;;;;14.50;4.80;;;;;;;8.55;100.00;99583.97;4189313;28;23875;-70
2022/10/04 03:40:44;;;;;;;10.17;4.50;;;;;;;8.59;100.00;99587.13;4153695;28;20265;-70
2022/10/04 03:43:11;;;;;;;14.80;5.07;;;;;;;8.63;100.00;99583.19;4166393;28;20242;-69
2022/10/04 03:45:38;;;;;;;8.63;4.90;;;;;;;8.63;100.00;99581.38;4168387;28;22555;-71
2022/10/04 03:48:07;;;;;;;10.63;4.80;;;;;;;8.75;100.00;99584.59;4151350;28;20320;-70
2022/10/04 03:50:37;;;;;;;15.13;4.87;;;;;;;8.74;100.00;99593.56;4172169;28;20245;-70
2022/10/04 03:53:13;;;;;;;13.80;4.80;;;;;;;8.75;100.00;99584.59;4157849;28;20230;-69
2022/10/04 03:55:44;;;;;;;12.90;4.40;;;;;;;8.79;100.00;99591.28;4163504;28;22753;-68
2022/10/04 03:58:16;;;;;;;13.47;5.07;;;;;;;8.82;100.00;99593.59;4165019;28;20231;-72
2022/10/04 04:00:52;;;;;;;14.80;4.93;;;;;;;8.75;100.00;99597.03;4169217;28;21154;-71
2022/10/04 04:03:19;;;;;;;13.60;5.47;;;;;;;8.73;100.00;99602.50;4169866;28;20280;-72
2022/10/04 04:05:50;;;;;;;11.53;4.73;;;;;;;8.79;100.00;99596.59;4166531;28;21775;-70
2022/10/04 04:08:35;;;;;;;11.60;4.73;;;;;;;8.80;100.00;99598.25;4177016;28;20251;-70
2022/10/04 04:11:04;;;;;;;10.47;5.17;;;;;;;8.76;100.00;99599.56;4185397;28;21282;-71
2022/10/04 04:13:57;;;;;;;10.70;4.90;;;;;;;8.76;100.00;99590.78;4153648;28;22979;-73
2022/10/04 04:16:25;;;;;;;15.97;5.10;;;;;;;8.67;100.00;99589.84;4179538;28;20241;-72
2022/10/04 04:18:53;;;;;;;9.20;5.17;;;;;;;8.70;100.00;99594.03;4163536;28;20238;-71
2022/10/04 04:21:22;;;;;;;13.43;5.67;;;;;;;8.70;100.00;99602.81;4153044;28;20603;-72
2022/10/04 04:23:53;;;;;;;11.17;4.90;;;;;;;8.72;100.00;99603.50;4147094;28;20235;-72
2022/10/04 04:26:33;;;;;;;14.00;5.63;;;;;;;8.67;100.00;99600.47;4172584;28;20413;-72
2022/10/04 04:29:05;;;;;;;13.70;5.33;;;;;;;8.75;100.00;99611.13;4164914;28;20241;-72
2022/10/04 04:31:40;;;;;;;13.83;5.27;;;;;;;8.70;100.00;99612.59;4161907;28;21795;-71
2022/10/04 04:34:28;;;;;;;20.23;6.07;;;;;;;8.78;100.00;99616.16;4163870;28;20236;-70
2022/10/04 04:36:59;;;;;;;9.00;4.87;;;;;;;8.75;100.00;99616.44;4172710;28;21702;-74
2022/10/04 04:39:42;;;;;;;17.00;6.03;;;;;;;8.73;100.00;99620.22;4156101;28;20225;-70
2022/10/04 04:42:13;;;;;;;13.13;5.40;;;;;;;8.75;100.00;99616.44;4170213;28;20274;-71
2022/10/04 04:44:51;;;;;;;15.83;5.13;;;;;;;8.75;100.00;99627.03;4161791;28;20594;-69
2022/10/04 04:47:34;;;;;;;11.17;5.03;;;;;;;8.82;100.00;99617.47;4188455;28;20307;-72
2022/10/04 04:50:05;;;;;;;13.83;4.30;;;;;;;8.76;100.00;99623.44;4150487;28;20317;-71
2022/10/04 04:52:32;;;;;;;12.00;5.13;;;;;;;8.76;100.00;99622.59;4156510;29;20591;-70
2022/10/04 04:54:59;;;;;;;14.67;4.57;;;;;;;8.72;100.00;99627.38;4152933;28;22375;-72
2022/10/04 04:57:25;;;;;;;13.97;4.20;;;;;;;8.79;100.00;99617.81;4157466;29;21291;-74
2022/10/04 04:59:57;;;;;;;19.17;4.90;;;;;;;8.83;100.00;99626.31;4163198;29;21017;-73
2022/10/04 05:02:33;;;;;;;14.53;3.87;;;;;;;8.85;100.00;99622.50;4155033;29;20241;-72
2022/10/04 05:05:24;;;;;;;15.00;4.27;;;;;;;8.86;100.00;99631.28;4144305;29;20238;-71
2022/10/04 05:08:09;;;;;;;12.50;3.83;;;;;;;8.84;100.00;99638.56;4166829;29;20237;-72
2022/10/04 05:10:38;;;;;;;8.03;3.47;;;;;;;8.83;100.00;99643.03;4160450;28;20239;-71
2022/10/04 05:13:07;;;;;;;13.33;3.63;;;;;;;8.86;100.00;99649.88;4159773;28;20234;-71
2022/10/04 05:15:35;;;;;;;12.97;3.60;;;;;;;8.83;100.00;99653.66;4163353;29;20343;-71
2022/10/04 05:18:16;;;;;;;7.80;3.13;;;;;;;8.88;100.00;99658.50;4157482;29;21077;-73
2022/10/04 05:20:47;;;;;;;9.63;3.00;;;;;;;8.87;100.00;99655.03;4166113;29;20242;-72
2022/10/04 05:23:14;;;;;;;14.70;4.33;;;;;;;8.90;100.00;99656.53;4199327;28;20305;-71
2022/10/04 05:25:40;;;;;;;13.90;3.67;;;;;;;8.90;100.00;99661.84;4179190;29;23122;-71
2022/10/04 05:28:13;;;;;;;10.00;3.33;;;;;;;8.94;100.00;99665.00;4167110;29;20318;-70
2022/10/04 05:30:40;;;;;;;7.97;2.97;;;;;;;9.00;100.00;99667.06;4166742;29;21370;-74
2022/10/04 05:33:10;;;;;;;6.90;3.27;;;;;;;9.03;100.00;99674.69;4194570;29;20246;-70
2022/10/04 05:36:01;;;;;;;9.83;3.60;;;;;;;9.04;100.00;99673.72;4172178;29;20243;-72
2022/10/04 05:38:38;;;;;;;10.77;3.10;;;;;;;9.16;100.00;99679.63;4154765;29;20241;-71
2022/10/04 05:41:16;;;;;;;14.70;3.57;;;;;;;9.19;100.00;99690.75;4178868;29;21770;-73
2022/10/04 05:43:49;;;;;;;12.23;3.07;;;;;;;9.25;100.00;99687.50;4174382;29;25407;-71
2022/10/04 05:46:21;;;;;;;10.63;3.00;;;;;;;9.25;100.00;99705.25;4166305;28;20854;-71
2022/10/04 05:48:53;;;;;;;8.83;2.57;;;;;;;9.34;100.00;99698.16;4176455;28;20231;-72
2022/10/04 05:51:31;;;;;;;6.60;2.73;;;;;;;9.37;100.00;99697.88;4176477;28;20237;-71
2022/10/04 05:54:00;;;;;;;14.77;3.00;;;;;;;9.35;100.00;99702.50;4166363;28;20225;-70
2022/10/04 05:56:29;;;;;;;9.97;2.77;;;;;;;9.45;100.00;99708.53;4196828;28;20544;-69
2022/10/04 05:59:05;;;;;;;6.80;2.40;;;;;;;9.51;100.00;99714.06;4165889;28;20248;-71
2022/10/04 06:01:43;;;;;;;13.60;2.53;;;;;;;9.53;100.00;99716.56;4183015;28;20231;-72
2022/10/04 06:04:32;;;;;;;8.43;2.10;;;;;;;9.57;100.00;99717.91;4172219;28;20250;-70
2022/10/04 06:07:03;;;;;;;8.73;2.30;;;;;;;9.57;100.00;99723.22;4176064;28;21131;-70
2022/10/04 06:10:24;;;;;;;9.80;2.27;;;;;;;9.63;100.00;99725.25;4180173;28;20233;-72
2022/10/04 06:13:08;;;;;;;16.30;2.67;;;;;;;9.65;100.00;99720.63;4159527;28;20238;-72
2022/10/04 06:16:01;;;;;;;17.77;2.13;;;;;;;9.79;100.00;99715.72;4174577;28;20619;-71
2022/10/04 06:19:17;;;;;;;8.93;2.27;;;;;;;10.10;100.00;99724.00;4202746;28;21901;-72
2022/10/04 06:21:46;;;;;;;6.80;2.20;;;;;;;10.15;100.00;99738.47;4127698;29;20629;-70
2022/10/04 06:24:18;;;;;;;10.97;2.13;;;;;;;10.06;100.00;99734.13;4155239;28;21974;-70
2022/10/04 06:26:52;;;;;;;7.37;2.20;;;;;;;10.01;100.00;99736.44;4172056;28;20626;-69
2022/10/04 06:29:23;;;;;;;7.90;2.37;;;;;;;10.06;100.00;99739.44;4175164;28;20436;-70
2022/10/04 06:32:31;;;;;;;8.23;2.67;;;;;;;9.99;100.00;99734.91;4172869;28;25315;-71
2022/10/04 06:35:22;;;;;;;10.00;2.80;;;;;;;10.00;100.00;99745.41;4168518;28;20289;-70
2022/10/04 06:37:57;;;;;;;8.10;2.90;;;;;;;9.96;100.00;99741.38;4167951;28;20245;-73
2022/10/04 06:40:42;;;;;;;9.10;2.60;;;;;;;10.00;100.00;99750.72;4161764;28;22069;-71
2022/10/04 06:43:20;;;;;;;7.67;2.07;;;;;;;10.00;100.00;99753.38;4169655;28;20627;-68
2022/10/04 06:46:24;;;;;;;10.20;2.17;;;;;;;10.07;100.00;99758.91;4185260;28;20238;-70
2022/10/04 06:49:28;;;;;;;10.37;2.57;;;;;;;10.12;100.00;99761.91;4180820;28;21770;-71
2022/10/04 06:52:23;;;;;;;8.73;2.50;;;;;;;10.06;100.00;99770.50;4184960;28;20272;-70
2022/10/04 06:55:27;;;;;;;9.33;2.47;;;;;;;10.11;100.00;99774.38;4184596;28;20288;-73
2022/10/04 06:58:09;;;;;;;11.53;2.53;;;;;;;10.19;100.00;99775.41;4170218;28;20408;-71
2022/10/04 07:00:48;;;;;;;8.83;2.67;;;;;;;10.17;100.00;99778.22;4153703;28;20265;-69
2022/10/04 07:03:22;;;;;;;11.70;2.40;;;;;;;10.23;100.00;99779.41;4166977;28;20247;-71
2022/10/04 07:05:56;;;;;;;9.23;2.57;;;;;;;10.21;100.00;99782.22;4156999;28;20246;-71
2022/10/04 07:08:33;;;;;;;7.63;2.43;;;;;;;10.31;100.00;99779.47;4179186;28;20504;-72
2022/10/04 07:11:24;;;;;;;12.23;2.77;;;;;;;10.40;100.00;99789.16;4162165;28;20253;-70
2022/10/04 07:14:05;;;;;;;9.40;2.40;;;;;;;10.57;100.00;99793.53;4160222;28;20370;-69
2022/10/04 07:16:37;;;;;;;10.30;2.60;;;;;;;10.66;100.00;99788.25;4165057;28;23647;-70
2022/10/04 07:19:21;;;;;;;7.27;2.47;;;;;;;10.67;100.00;99795.25;4153414;28;20238;-70
2022/10/04 07:22:05;;;;;;;8.80;2.40;;;;;;;10.73;100.00;99799.94;4167372;28;20230;-68
2022/10/04 07:24:38;;;;;;;7.20;2.70;;;;;;;10.77;100.00;99812.75;4176392;28;20234;-68
2022/10/04 07:27:09;;;;;;;6.17;2.37;;;;;;;10.69;100.00;99814.53;4176543;28;22573;-69
2022/10/04 07:29:37;;;;;;;5.77;2.17;;;;;;;10.57;100.00;99806.84;4149909;28;21249;-68
2022/10/04 07:32:12;;;;;;;7.03;2.30;;;;;;;10.59;100.00;99819.16;4166003;28;20244;-67
2022/10/04 07:34:44;;;;;;;5.47;2.13;;;;;;;10.64;100.00;99824.84;4152974;28;20240;-69
2022/10/04 07:37:12;;;;;;;9.83;2.47;;;;;;;10.66;100.00;99825.50;4149889;29;20392;-69
2022/10/04 07:39:49;;;;;;;4.97;1.90;;;;;;;10.71;100.00;99817.88;4151975;28;20332;-71
2022/10/04 07:42:41;;;;;;;7.40;2.13;;;;;;;10.58;100.00;99820.97;4169556;28;20246;-70
2022/10/04 07:45:28;;;;;;;6.40;2.10;;;;;;;10.69;100.00;99830.50;4170165;28;20309;-68
2022/10/04 07:48:25;;;;;;;10.87;2.27;;;;;;;10.55;100.00;99834.59;4164577;28;20234;-71
2022/10/04 07:51:03;;;;;;;7.43;2.73;;;;;;;10.58;100.00;99834.28;4173021;28;20653;-67
2022/10/04 07:53:40;;;;;;;6.80;2.50;;;;;;;10.55;100.00;99838.09;4168059;28;20557;-69
2022/10/04 07:56:13;;;;;;;4.83;1.70;;;;;;;10.63;100.00;99841.78;4153623;28;20720;-69
2022/10/04 07:59:16;;;;;;;5.20;1.90;;;;;;;10.56;100.00;99847.75;4179414;28;20341;-68
2022/10/04 08:02:12;;;;;;;5.07;1.97;;;;;;;10.62;100.00;99845.44;4158548;28;20256;-70
2022/10/04 08:04:43;;;;;;;8.10;1.97;;;;;;;10.73;100.00;99855.81;4167519;28;20238;-69
2022/10/04 08:07:16;;;;;;;2.93;1.67;;;;;;;10.79;100.00;99847.16;4176810;28;20417;-68
2022/10/04 08:10:03;;;;;;;4.67;1.77;;;;;;;10.80;99.30;99851.50;4153537;28;21442;-68
2022/10/04 08:13:01;;;;;;;7.90;2.10;;;;;;;10.76;99.24;99852.81;4152064;28;20239;-69
2022/10/04 08:15:35;;;;;;;4.50;1.80;;;;;;;10.76;99.14;99858.13;4164796;28;20237;-69
2022/10/04 08:18:17;;;;;;;6.13;1.50;;;;;;;10.78;98.83;99856.16;4165984;28;20226;-69
2022/10/04 08:21:03;;;;;;;3.47;1.53;;;;;;;10.80;98.07;99854.16;4165853;28;20241;-67
2022/10/04 08:24:12;;;;;;;4.23;1.70;;;;;;;10.94;95.94;99858.88;4165675;28;20227;-68
2022/10/04 08:27:04;;;;;;;4.60;1.53;;;;;;;11.21;95.27;99856.94;4167935;28;20331;-71
2022/10/04 08:29:51;;;;;;;4.30;1.60;;;;;;;11.44;94.73;99856.31;4178932;28;20341;-69
2022/10/04 08:32:36;;;;;;;7.00;1.70;;;;;;;11.41;94.81;99852.97;4173695;28;20247;-70
2022/10/04 08:35:26;;;;;;;8.57;1.70;;;;;;;11.56;93.30;99862.97;4172276;28;22276;-68
2022/10/04 08:38:22;;;;;;;3.53;1.63;;;;;;;11.61;92.70;99873.97;4173424;28;20303;-69
2022/10/04 08:40:58;;;;;;;9.87;2.10;;;;;;;11.75;90.90;99881.34;4169976;28;22601;-73
2022/10/04 08:43:41;;;;;;;2.67;1.50;;;;;;;11.66;90.77;99876.13;4155895;28;20345;-66
2022/10/04 08:46:31;;;;;;;3.60;1.40;;;;;;;11.63;91.54;99877.31;4170545;28;20245;-67
2022/10/04 08:49:37;;;;;;;7.53;1.57;;;;;;;11.60;92.52;99877.66;4156695;28;20683;-69
2022/10/04 08:52:56;;;;;;;4.87;1.40;;;;;;;11.74;89.54;99876.16;4171133;28;20998;-67
2022/10/04 08:55:33;;;;;;;2.83;1.27;;;;;;;11.91;89.65;99877.03;4137386;29;20699;-68
2022/10/04 08:58:14;;;;;;;6.27;1.40;;;;;;;12.05;89.30;99881.66;4127144;29;20243;-68
2022/10/04 09:00:49;;;;;;;5.73;1.27;;;;;;;12.23;87.42;99884.16;4156777;29;20370;-69
2022/10/04 09:03:35;;;;;;;6.47;1.63;;;;;;;12.36;86.83;99888.97;4155772;28;20294;-71
2022/10/04 09:06:36;;;;;;;4.40;0.90;;;;;;;12.47;85.12;99893.94;4165111;28;20237;-71
2022/10/04 09:09:34;;;;;;;4.07;1.07;;;;;;;12.51;84.32;99908.63;4179818;28;20315;-72
2022/10/04 09:12:15;;;;;;;4.00;1.00;;;;;;;12.54;83.58;99904.78;4164610;29;20239;-67
2022/10/04 09:14:56;;;;;;;7.40;1.10;;;;;;;12.51;83.80;99905.13;4158610;28;20268;-71
2022/10/04 09:17:45;;;;;;;3.03;0.93;;;;;;;12.61;82.91;99903.91;4172386;28;20693;-70
2022/10/04 09:20:19;;;;;;;8.07;1.27;;;;;;;12.55;82.64;99903.75;4178244;28;25501;-72
2022/10/04 09:23:26;;;;;;;3.60;1.20;;;;;;;12.63;82.02;99912.59;4188848;28;22103;-70
2022/10/04 09:26:13;;;;;;;4.47;1.07;;;;;;;12.62;81.78;99905.59;4199020;28;20771;-71
2022/10/04 09:29:09;;;;;;;1.53;1.00;;;;;;;12.56;80.46;99924.13;4168042;28;20241;-70
2022/10/04 09:32:04;;;;;;;2.80;1.00;;;;;;;12.47;79.85;99925.97;4147175;28;20310;-70
2022/10/04 09:34:41;;;;;;;4.03;1.33;;;;;;;12.53;79.19;99922.63;4182156;28;20433;-72
2022/10/04 09:37:31;;;;;;;4.10;1.07;;;;;;;12.68;76.87;99928.09;4165276;28;20309;-72
2022/10/04 09:40:09;;;;;;;2.43;0.80;;;;;;;12.55;76.23;99933.13;4150115;28;20310;-71
2022/10/04 09:43:10;;;;;;;4.13;1.30;;;;;;;12.51;77.56;99929.97;4168353;28;20237;-77
2022/10/04 09:46:06;;;;;;;5.93;1.30;;;;;;;12.53;78.42;99932.47;4164574;28;20665;-69
2022/10/04 09:49:04;;;;;;;3.87;0.90;;;;;;;12.43;79.69;99932.63;4194087;28;20417;-73
2022/10/04 09:52:07;;;;;;;2.40;1.00;;;;;;;12.38;80.77;99929.66;4199815;28;20359;-70
2022/10/04 09:54:53;;;;;;;2.63;0.90;;;;;;;12.38;81.56;99937.66;4176464;28;20261;-72
2022/10/04 09:57:52;;;;;;;5.23;0.83;;;;;;;12.32;83.05;99941.84;4180111;28;20857;-74
2022/10/04 10:00:23;;;;;;;3.53;1.30;;;;;;;12.24;84.05;99948.03;4174804;28;20235;-72
2022/10/04 10:03:30;;;;;;;1.97;1.13;;;;;;;12.18;83.77;99943.34;4164256;28;20416;-75
2022/10/04 10:06:07;;;;;;;5.50;1.30;;;;;;;12.11;83.86;99939.69;4182142;28;20630;-69
2022/10/04 10:08:34;;;;;;;6.10;1.20;;;;;;;12.17;84.18;99944.34;4173463;28;21336;-73
2022/10/04 10:14:59;;;;;;;4.30;1.10;;;;;;;12.57;82.65;99941.78;4263622;28;20276;-73
2022/10/04 10:17:45;;;;;;;2.40;1.00;;;;;;;12.74;81.06;99951.44;4271439;28;22931;-70
2022/10/04 10:20:36;;;;;;;3.53;1.00;;;;;;;13.09;80.19;99963.50;4194341;28;21216;-75
2022/10/04 10:23:31;;;;;;;5.10;1.97;;;;;;;13.28;79.27;99961.47;4196308;28;20284;-77
2022/10/04 10:26:23;;;;;;;2.93;1.20;;;;;;;13.17;77.99;99956.47;4159898;28;20245;-73
2022/10/04 10:29:24;;;;;;;4.30;1.07;;;;;;;13.17;77.83;99967.97;4214984;28;20235;-79
2022/10/04 10:32:08;;;;;;;4.03;1.40;;;;;;;13.16;77.74;99960.13;4170385;28;20638;-78
2022/10/04 10:35:07;;;;;;;2.43;1.10;;;;;;;13.23;78.04;99972.63;4194483;28;20679;-74
2022/10/04 10:37:56;;;;;;;5.80;1.80;;;;;;;13.13;78.00;99973.84;4189648;28;23687;-79
2022/10/04 10:40:58;;;;;;;1.53;0.87;;;;;;;12.95;78.50;99977.59;4169379;28;20238;-74
2022/10/04 10:43:54;;;;;;;2.20;1.00;;;;;;;12.98;78.93;99969.22;4191669;28;21589;-77
2022/10/04 10:46:30;;;;;;;6.37;1.30;;;;;;;12.91;77.78;99978.94;4233750;28;20242;-75
2022/10/04 10:49:17;;;;;;;2.63;1.20;;;;;;;12.89;77.50;99986.28;4171679;28;20256;-74
2022/10/04 10:52:05;;;;;;;3.70;1.30;;;;;;;12.99;77.61;99981.56;4190666;28;20313;-76
2022/10/04 10:54:56;;;;;;;3.30;0.90;;;;;;;13.15;76.87;99985.19;4218339;28;21746;-74
2022/10/04 10:57:42;;;;;;;2.67;0.90;;;;;;;13.19;75.94;99984.69;4185741;28;20270;-75
2022/10/04 11:00:18;;;;;;;3.27;1.13;;;;;;;13.39;75.67;99984.28;4206752;28;21178;-75
2022/10/04 11:03:22;;;;;;;4.87;0.97;;;;;;;13.36;74.66;99976.63;4184078;28;20236;-74
2022/10/04 11:06:08;;;;;;;9.10;0.87;;;;;;;13.68;72.87;99987.13;4173579;28;20232;-76
2022/10/04 11:08:58;;;;;;;3.43;0.80;;;;;;;13.76;69.37;99991.59;4212367;28;20234;-76
2022/10/04 11:11:54;;;;;;;2.53;0.80;;;;;;;14.09;69.78;100004.75;4265337;28;21581;-74
2022/10/04 11:14:27;;;;;;;4.53;1.20;;;;;;;14.12;70.22;100009.78;4171449;28;21099;-75
2022/10/04 11:17:13;;;;;;;6.63;1.03;;;;;;;13.85;70.89;100008.44;4182240;28;20233;-76
2022/10/04 11:19:42;;;;;;;4.77;0.90;;;;;;;13.59;73.35;100004.22;4211820;28;20424;-72
2022/10/04 11:22:29;;;;;;;4.13;1.40;;;;;;;13.15;75.93;100020.75;4161133;28;20236;-74
2022/10/04 11:25:44;;;;;;;5.50;1.40;;;;;;;12.97;75.58;100010.31;4186683;28;20242;-74
2022/10/04 11:28:23;;;;;;;2.83;0.80;;;;;;;13.06;74.41;100014.63;4216655;28;22708;-74
2022/10/04 11:31:17;;;;;;;5.37;1.17;;;;;;;13.26;74.61;100024.91;4191147;29;20243;-76
2022/10/04 11:34:11;;;;;;;2.07;1.00;;;;;;;13.23;74.73;100023.41;4164398;28;21257;-77
2022/10/04 11:36:45;;;;;;;2.57;1.00;;;;;;;13.19;75.74;100027.41;4155709;28;22248;-75
2022/10/04 11:39:12;;;;;;;4.87;1.47;;;;;;;13.10;77.11;100020.44;4174799;28;20298;-74
2022/10/04 11:41:47;;;;;;;4.60;1.30;;;;;;;13.32;75.95;100028.75;4178314;28;20248;-73
2022/10/04 11:44:42;;;;;;;3.33;1.30;;;;;;;13.25;75.09;100037.44;4172162;29;20331;-76
2022/10/04 11:47:45;;;;;;;3.20;0.90;;;;;;;13.17;75.85;100031.28;4187837;28;22460;-73
2022/10/04 11:50:37;;;;;;;7.53;1.30;;;;;;;13.22;74.62;100040.44;4207019;28;20239;-72
2022/10/04 11:53:32;;;;;;;5.40;1.10;;;;;;;13.21;75.35;100038.78;4177593;28;21515;-73
2022/10/04 11:56:30;;;;;;;5.03;1.40;;;;;;;13.15;75.00;100034.09;4216380;28;20234;-73
2022/10/04 11:59:42;;;;;;;3.53;0.90;;;;;;;13.26;73.16;100036.41;4210086;28;20251;-74
2022/10/04 12:02:28;;;;;;;5.20;1.10;;;;;;;13.34;72.26;100038.25;4183517;28;20490;-71
2022/10/04 12:05:18;;;;;;;5.70;1.30;;;;;;;13.63;72.13;100045.66;4211446;28;21622;-74
2022/10/04 12:07:53;;;;;;;2.90;1.17;;;;;;;13.94;70.55;100048.31;4176611;28;20246;-76
2022/10/04 12:10:24;;;;;;;1.20;0.80;;;;;;;13.89;70.07;100053.38;4185640;28;20237;-71
2022/10/04 12:13:18;;;;;;;4.30;1.10;;;;;;;13.72;70.21;100051.81;4167713;28;20616;-75
2022/10/04 12:16:15;;;;;;;3.80;0.93;;;;;;;13.62;71.59;100057.34;4187312;28;22862;-71
2022/10/04 12:19:14;;;;;;;7.27;1.83;;;;;;;13.64;72.93;100057.19;4177624;28;20246;-71
2022/10/04 12:22:01;;;;;;;4.63;0.97;;;;;;;13.67;73.60;100060.34;4192444;28;20261;-69
2022/10/04 12:25:06;;;;;;;4.00;1.10;;;;;;;13.93;72.67;100064.56;4200537;28;20600;-66
2022/10/04 12:27:43;;;;;;;3.37;1.43;;;;;;;13.99;72.40;100057.66;4179879;28;20322;-70
2022/10/04 12:30:19;;;;;;;5.90;1.10;;;;;;;14.10;72.42;100071.47;4172926;28;20433;-67
2022/10/04 12:32:57;;;;;;;3.90;1.17;;;;;;;14.02;72.78;100060.81;4176335;28;20247;-67
2022/10/04 12:35:46;;;;;;;4.73;1.27;;;;;;;13.82;73.06;100063.13;4167405;28;20305;-66